Time;durP1;ratioP1;P1;durP2;ratioP2;P2;SDS_P1;SDS_P2;PMS_P1;PMS_P2;Temp;Humidity;BMP_temperature;BMP_pressure;BME280_temperature;BME280_humidity;BME280_pressure;Samples;Min_cycle;Max_cycle;Signal;HPM_P1;HPM_P2
2023/09/27 00:00:38;;;;;;;26.23;23.50;;;13.60;99.90;;;;;;4985007;28;20039;-81
2023/09/27 00:03:05;;;;;;;25.30;22.90;;;13.60;99.90;;;;;;4985596;28;20136;-82
2023/09/27 00:05:31;;;;;;;24.77;22.33;;;13.60;99.90;;;;;;4969788;28;20498;-83
2023/09/27 00:07:57;;;;;;;25.70;23.30;;;13.60;99.90;;;;;;4989400;28;20121;-82
2023/09/27 00:10:23;;;;;;;24.98;22.42;;;13.60;99.90;;;;;;4970865;28;20042;-82
2023/09/27 00:12:49;;;;;;;27.13;24.42;;;13.90;99.90;;;;;;4954662;28;20348;-84
2023/09/27 00:15:15;;;;;;;27.23;24.38;;;13.50;99.90;;;;;;4970247;28;20058;-83
2023/09/27 00:17:42;;;;;;;27.92;25.08;;;13.50;99.90;;;;;;4987373;28;20508;-83
2023/09/27 00:20:11;;;;;;;27.80;24.80;;;14.00;99.90;;;;;;4988534;28;20157;-83
2023/09/27 00:22:37;;;;;;;27.38;24.58;;;13.50;99.90;;;;;;4967690;28;20122;-83
2023/09/27 00:25:04;;;;;;;27.80;24.92;;;13.50;99.90;;;;;;4969505;28;20129;-83
2023/09/27 00:27:31;;;;;;;27.45;24.63;;;13.40;99.90;;;;;;4988321;28;20046;-83
2023/09/27 00:29:58;;;;;;;25.98;23.45;;;13.40;99.90;;;;;;4985200;28;20439;-83
2023/09/27 00:32:24;;;;;;;28.05;25.13;;;13.40;99.90;;;;;;4985131;28;20043;-82
2023/09/27 00:34:49;;;;;;;26.80;24.13;;;13.40;99.90;;;;;;4985231;28;20104;-83
2023/09/27 00:37:15;;;;;;;25.75;23.15;;;13.40;99.90;;;;;;4987547;28;20042;-83
2023/09/27 00:39:41;;;;;;;26.65;23.85;;;13.40;99.90;;;;;;4971080;28;20049;-83
2023/09/27 00:42:07;;;;;;;28.88;25.77;;;13.40;99.90;;;;;;4970616;28;20050;-83
2023/09/27 00:44:33;;;;;;;28.83;26.02;;;13.40;99.90;;;;;;4987448;28;20057;-83
2023/09/27 00:46:58;;;;;;;27.77;24.88;;;13.40;99.90;;;;;;4969364;28;20058;-83
2023/09/27 00:49:24;;;;;;;29.02;25.38;;;13.40;99.90;;;;;;4988056;28;20049;-82
2023/09/27 00:51:51;;;;;;;27.58;24.67;;;13.60;99.90;;;;;;4984965;28;20054;-82
2023/09/27 00:54:17;;;;;;;25.80;23.25;;;13.40;99.90;;;;;;4953722;28;20055;-82
2023/09/27 00:56:44;;;;;;;28.17;25.30;;;13.50;99.90;;;;;;4968075;28;20038;-82
2023/09/27 00:59:09;;;;;;;29.35;26.40;;;13.30;99.90;;;;;;4974003;28;20061;-82
2023/09/27 01:01:36;;;;;;;27.85;25.17;;;13.40;99.90;;;;;;4967638;28;20050;-83
2023/09/27 01:04:03;;;;;;;28.48;25.67;;;13.20;99.90;;;;;;4970190;28;20098;-82
2023/09/27 01:06:28;;;;;;;28.63;25.83;;;13.30;99.90;;;;;;4986973;28;20423;-83
2023/09/27 01:08:54;;;;;;;27.88;25.10;;;13.30;99.90;;;;;;4965540;28;20047;-83
2023/09/27 01:11:19;;;;;;;29.95;26.85;;;13.30;99.90;;;;;;4969674;28;20625;-82
2023/09/27 01:13:45;;;;;;;29.25;26.20;;;13.30;99.90;;;;;;4987803;28;20059;-82
2023/09/27 01:16:11;;;;;;;32.45;29.05;;;13.30;99.90;;;;;;4955551;28;20409;-83
2023/09/27 01:18:37;;;;;;;30.52;26.35;;;13.20;99.90;;;;;;4987847;28;20116;-83
2023/09/27 01:21:02;;;;;;;29.10;26.17;;;13.40;99.90;;;;;;4953912;28;20046;-83
2023/09/27 01:23:28;;;;;;;28.45;25.55;;;13.20;99.90;;;;;;4988914;28;20049;-82
2023/09/27 01:26:00;;;;;;;29.38;26.30;;;13.20;99.90;;;;;;4987493;28;20061;-82
2023/09/27 01:28:26;;;;;;;28.95;25.95;;;13.20;99.90;;;;;;4970425;28;20105;-82
2023/09/27 01:30:51;;;;;;;29.42;26.52;;;13.10;99.90;;;;;;4987494;28;20042;-82
2023/09/27 01:33:17;;;;;;;28.88;25.88;;;13.10;99.90;;;;;;4988157;28;20161;-82
2023/09/27 01:35:44;;;;;;;29.88;26.70;;;13.10;99.90;;;;;;4969613;28;20047;-82
2023/09/27 01:38:11;;;;;;;28.98;25.85;;;13.60;99.90;;;;;;4988326;28;20129;-82
2023/09/27 01:40:44;;;;;;;27.42;24.73;;;13.10;99.90;;;;;;4954825;28;20054;-81
2023/09/27 01:43:10;;;;;;;29.05;26.13;;;13.00;99.90;;;;;;4957299;28;20132;-82
2023/09/27 01:45:37;;;;;;;28.40;25.50;;;13.00;99.90;;;;;;4984904;28;20828;-81
2023/09/27 01:48:06;;;;;;;30.17;27.08;;;13.20;99.90;;;;;;4990160;28;20049;-82
2023/09/27 01:50:33;;;;;;;29.83;26.80;;;13.00;99.90;;;;;;4957517;28;20585;-82
2023/09/27 01:52:59;;;;;;;29.52;26.08;;;13.00;99.90;;;;;;4990396;28;20085;-82
2023/09/27 01:55:25;;;;;;;29.85;26.90;;;13.00;99.90;;;;;;4972664;28;20062;-81
2023/09/27 01:57:51;;;;;;;30.83;27.55;;;13.00;99.90;;;;;;4972915;28;20042;-82
2023/09/27 02:00:19;;;;;;;31.45;27.05;;;12.90;99.90;;;;;;4973144;28;20046;-81
2023/09/27 02:02:53;;;;;;;29.92;25.90;;;12.90;99.90;;;;;;4990671;28;20046;-82
2023/09/27 02:05:19;;;;;;;29.23;26.00;;;12.90;99.90;;;;;;4973838;28;21461;-82
2023/09/27 02:07:45;;;;;;;30.15;26.95;;;12.90;99.90;;;;;;4991391;28;20042;-82
2023/09/27 02:10:11;;;;;;;30.90;27.55;;;12.90;99.90;;;;;;4972423;28;20042;-82
2023/09/27 02:12:38;;;;;;;28.70;25.95;;;13.20;99.90;;;;;;4991502;28;20046;-82
2023/09/27 02:15:05;;;;;;;30.20;27.02;;;12.90;99.90;;;;;;4990562;28;20042;-83
2023/09/27 02:17:30;;;;;;;31.25;28.05;;;12.80;99.90;;;;;;4979827;28;20095;-82
2023/09/27 02:19:56;;;;;;;33.08;29.45;;;12.80;99.90;;;;;;4952632;28;20489;-83
2023/09/27 02:22:22;;;;;;;32.10;28.85;;;12.80;99.90;;;;;;4973519;28;20057;-82
2023/09/27 02:24:48;;;;;;;32.60;29.23;;;12.80;99.90;;;;;;4989297;28;20559;-82
2023/09/27 02:27:14;;;;;;;33.08;29.48;;;12.80;99.90;;;;;;4989773;28;20125;-82
2023/09/27 02:29:41;;;;;;;33.45;28.95;;;12.80;99.90;;;;;;4989095;28;20034;-83
2023/09/27 02:32:07;;;;;;;30.00;26.80;;;12.80;99.90;;;;;;4991067;28;20478;-82
2023/09/27 02:34:34;;;;;;;31.50;28.30;;;12.70;99.90;;;;;;4973067;28;20046;-82
2023/09/27 02:37:00;;;;;;;34.35;30.75;;;12.80;99.90;;;;;;4990101;28;20049;-82
2023/09/27 02:39:25;;;;;;;30.95;27.83;;;12.70;99.90;;;;;;4963596;28;20050;-83
2023/09/27 02:41:51;;;;;;;31.13;28.02;;;12.70;99.90;;;;;;4989091;28;20046;-83
2023/09/27 02:44:17;;;;;;;30.77;27.80;;;12.60;99.90;;;;;;4973211;28;20050;-83
2023/09/27 02:46:44;;;;;;;30.58;27.48;;;12.70;99.90;;;;;;4989065;28;20525;-82
2023/09/27 02:49:10;;;;;;;31.45;28.02;;;12.60;99.90;;;;;;4990051;28;20498;-83
2023/09/27 02:51:37;;;;;;;30.83;27.75;;;12.60;99.90;;;;;;4985444;28;20038;-83
2023/09/27 02:54:03;;;;;;;32.00;28.55;;;12.60;99.90;;;;;;4990279;28;20121;-83
2023/09/27 02:56:28;;;;;;;32.67;29.23;;;12.60;99.90;;;;;;4989389;28;20149;-83
2023/09/27 02:58:54;;;;;;;31.98;28.73;;;12.50;99.90;;;;;;4987952;28;20042;-83
2023/09/27 03:01:20;;;;;;;31.08;27.73;;;12.60;99.90;;;;;;4972050;28;20489;-83
2023/09/27 03:03:46;;;;;;;32.10;28.75;;;12.80;99.90;;;;;;4955666;28;20042;-82
2023/09/27 03:06:14;;;;;;;33.83;29.83;;;12.50;99.90;;;;;;4989483;28;20054;-81
2023/09/27 03:08:40;;;;;;;31.48;28.38;;;12.90;99.90;;;;;;4982126;28;20572;-82
2023/09/27 03:11:06;;;;;;;32.97;29.45;;;12.50;99.90;;;;;;5000837;28;20568;-82
2023/09/27 03:13:36;;;;;;;32.30;29.10;;;12.40;99.90;;;;;;4982945;28;20061;-82
2023/09/27 03:16:02;;;;;;;28.25;25.40;;;12.40;99.90;;;;;;4971830;28;20412;-81
2023/09/27 03:18:28;;;;;;;32.95;29.35;;;12.30;99.90;;;;;;4997776;28;20050;-82
2023/09/27 03:20:54;;;;;;;33.40;29.98;;;12.40;99.90;;;;;;4985767;28;20085;-82
2023/09/27 03:23:19;;;;;;;32.38;29.08;;;12.40;99.90;;;;;;4988491;28;20042;-82
2023/09/27 03:25:48;;;;;;;31.08;27.85;;;13.00;99.90;;;;;;4986431;28;20039;-82
2023/09/27 03:28:14;;;;;;;32.78;29.35;;;12.70;99.90;;;;;;4988680;28;20046;-82
2023/09/27 03:30:40;;;;;;;33.63;30.20;;;12.30;99.90;;;;;;4989067;28;20100;-83
2023/09/27 03:33:06;;;;;;;32.53;28.92;;;12.30;99.90;;;;;;4971286;28;20063;-83
2023/09/27 03:35:32;;;;;;;32.85;28.27;;;12.30;99.90;;;;;;4972283;28;20621;-83
2023/09/27 03:37:57;;;;;;;32.47;29.05;;;12.30;99.90;;;;;;4989308;28;20081;-83
2023/09/27 03:40:23;;;;;;;33.63;30.15;;;12.30;99.90;;;;;;4969648;28;20043;-83
2023/09/27 03:42:49;;;;;;;33.83;30.38;;;12.30;99.90;;;;;;4988357;28;20055;-83
2023/09/27 03:45:16;;;;;;;32.42;29.23;;;12.30;99.90;;;;;;4989543;28;20057;-83
2023/09/27 03:47:45;;;;;;;36.03;31.15;;;12.40;99.90;;;;;;4972674;28;20038;-83
2023/09/27 03:50:12;;;;;;;35.92;32.13;;;12.20;99.90;;;;;;4971808;28;20050;-82
2023/09/27 03:52:41;;;;;;;37.70;32.83;;;12.20;99.90;;;;;;4970143;28;20070;-83
2023/09/27 03:55:11;;;;;;;35.17;31.23;;;12.20;99.90;;;;;;4990086;28;20352;-83
2023/09/27 03:57:37;;;;;;;34.90;31.23;;;12.20;99.90;;;;;;4988653;28;20046;-82
2023/09/27 04:00:06;;;;;;;34.13;30.60;;;12.20;99.90;;;;;;4988115;28;20173;-83
2023/09/27 04:02:32;;;;;;;36.72;32.78;;;12.20;99.90;;;;;;4971850;28;20525;-82
2023/09/27 04:04:58;;;;;;;36.53;32.78;;;12.20;99.90;;;;;;4989719;28;20105;-83
2023/09/27 04:07:24;;;;;;;35.63;32.00;;;12.20;99.90;;;;;;4967883;28;20047;-83
2023/09/27 04:09:49;;;;;;;35.55;31.73;;;12.20;99.90;;;;;;4970904;28;20384;-82
2023/09/27 04:12:15;;;;;;;35.58;31.98;;;12.20;99.90;;;;;;4988757;28;20703;-83
2023/09/27 04:14:41;;;;;;;35.22;31.42;;;12.20;99.90;;;;;;4969153;28;20050;-83
2023/09/27 04:17:09;;;;;;;35.33;31.63;;;12.20;99.90;;;;;;4978262;28;20053;-83
2023/09/27 04:19:35;;;;;;;34.53;30.88;;;12.10;99.90;;;;;;4985551;28;20057;-82
2023/09/27 04:22:00;;;;;;;35.40;31.90;;;12.10;99.90;;;;;;4984135;28;20046;-83
2023/09/27 04:24:27;;;;;;;37.25;33.03;;;12.10;99.90;;;;;;4971250;28;20054;-83
2023/09/27 04:26:53;;;;;;;34.60;30.85;;;12.10;99.90;;;;;;4969534;28;20046;-82
2023/09/27 04:29:20;;;;;;;35.15;31.15;;;12.10;99.90;;;;;;4969769;28;20054;-83
2023/09/27 04:31:45;;;;;;;37.97;33.88;;;12.30;99.90;;;;;;4986847;28;20042;-83
2023/09/27 04:34:11;;;;;;;34.60;30.92;;;12.10;99.90;;;;;;4972011;28;20097;-82
2023/09/27 04:36:37;;;;;;;34.72;31.05;;;12.10;99.90;;;;;;4984305;28;20534;-82
2023/09/27 04:39:11;;;;;;;36.40;32.50;;;12.10;99.90;;;;;;4955426;28;20781;-82
2023/09/27 04:41:37;;;;;;;34.13;30.52;;;12.10;99.90;;;;;;4952598;28;20038;-82
2023/09/27 04:44:02;;;;;;;40.58;32.00;;;12.00;99.90;;;;;;4971495;28;20054;-82
2023/09/27 04:46:28;;;;;;;34.90;31.25;;;12.00;99.90;;;;;;4968217;28;20050;-83
2023/09/27 04:48:54;;;;;;;36.90;32.17;;;12.00;99.90;;;;;;4986051;28;20050;-83
2023/09/27 04:51:19;;;;;;;35.40;31.63;;;12.10;99.90;;;;;;4968736;28;20145;-83
2023/09/27 04:53:45;;;;;;;34.90;30.63;;;12.00;99.90;;;;;;4986483;28;20050;-83
2023/09/27 04:56:11;;;;;;;35.55;31.92;;;12.00;99.90;;;;;;4969630;28;20421;-83
2023/09/27 04:58:38;;;;;;;35.67;31.88;;;12.00;99.90;;;;;;4965098;28;20054;-83
2023/09/27 05:01:05;;;;;;;36.35;32.55;;;11.90;99.90;;;;;;4968946;28;20081;-83
2023/09/27 05:03:31;;;;;;;34.28;30.65;;;11.90;99.90;;;;;;4972378;28;20136;-82
2023/09/27 05:05:57;;;;;;;35.75;31.73;;;11.90;99.90;;;;;;4995285;28;20521;-82
2023/09/27 05:08:24;;;;;;;35.78;31.15;;;12.00;99.90;;;;;;4984214;28;20050;-82
2023/09/27 05:10:50;;;;;;;37.63;33.58;;;11.90;99.90;;;;;;4985496;28;20034;-82
2023/09/27 05:13:16;;;;;;;37.55;33.50;;;11.90;99.90;;;;;;4974425;28;20469;-81
2023/09/27 05:15:42;;;;;;;38.33;34.20;;;11.90;99.90;;;;;;4987660;28;20042;-82
2023/09/27 05:18:07;;;;;;;35.13;31.40;;;11.90;99.90;;;;;;4952179;28;1064933;-82
2023/09/27 05:20:35;;;;;;;37.05;33.15;;;11.90;99.90;;;;;;4970894;28;20137;-82
2023/09/27 05:23:01;;;;;;;36.72;32.80;;;11.90;99.90;;;;;;4972088;28;20047;-82
2023/09/27 05:25:26;;;;;;;35.03;31.38;;;12.00;99.90;;;;;;4974407;28;20057;-82
2023/09/27 05:27:52;;;;;;;34.60;30.98;;;12.00;99.90;;;;;;4975280;28;20061;-82
2023/09/27 05:30:21;;;;;;;34.72;31.10;;;12.20;99.90;;;;;;4973927;28;20577;-82
2023/09/27 05:32:47;;;;;;;35.33;31.63;;;12.10;99.90;;;;;;4972557;28;20121;-83
2023/09/27 05:35:13;;;;;;;36.50;32.58;;;12.10;99.90;;;;;;4992543;28;20050;-85
2023/09/27 05:37:42;;;;;;;37.95;34.00;;;12.10;99.90;;;;;;4989900;28;20046;-83
2023/09/27 05:40:09;;;;;;;37.72;33.90;;;12.20;99.90;;;;;;4973623;28;20096;-84
2023/09/27 05:42:35;;;;;;;36.35;32.45;;;12.20;99.90;;;;;;4973726;28;20038;-84
2023/09/27 05:45:01;;;;;;;37.25;32.47;;;12.30;99.90;;;;;;4974067;28;20061;-83
2023/09/27 05:47:27;;;;;;;36.25;32.60;;;12.30;99.90;;;;;;4975888;28;20098;-83
2023/09/27 05:49:53;;;;;;;36.90;33.08;;;12.80;99.90;;;;;;4992417;28;20676;-81
2023/09/27 05:52:19;;;;;;;38.00;33.95;;;12.40;99.90;;;;;;4958531;28;20141;-80
2023/09/27 05:54:46;;;;;;;39.38;32.80;;;12.50;99.90;;;;;;4991847;28;20118;-80
2023/09/27 05:57:12;;;;;;;39.75;35.42;;;12.50;99.90;;;;;;4992996;28;20072;-81
2023/09/27 05:59:40;;;;;;;38.63;34.55;;;12.60;99.90;;;;;;4975645;28;20050;-81
2023/09/27 06:02:16;;;;;;;37.50;33.50;;;12.60;99.90;;;;;;4975826;28;20054;-80
2023/09/27 06:04:45;;;;;;;36.60;32.65;;;12.60;99.90;;;;;;4991856;28;20528;-81
2023/09/27 06:07:13;;;;;;;35.80;32.17;;;12.70;99.90;;;;;;4991760;28;20047;-83
2023/09/27 06:09:40;;;;;;;37.50;32.95;;;12.70;99.90;;;;;;4991572;28;20133;-81
2023/09/27 06:12:07;;;;;;;35.65;31.73;;;12.80;99.90;;;;;;4991621;28;20134;-79
2023/09/27 06:14:33;;;;;;;35.28;31.52;;;12.80;99.90;;;;;;4973755;28;20058;-81
2023/09/27 06:16:59;;;;;;;33.45;30.05;;;12.80;99.90;;;;;;4991126;28;20050;-84
2023/09/27 06:19:25;;;;;;;34.45;30.00;;;12.90;99.90;;;;;;4972039;28;20465;-83
2023/09/27 06:21:51;;;;;;;27.95;24.98;;;12.90;99.90;;;;;;4989232;28;20050;-83
2023/09/27 06:24:16;;;;;;;33.00;29.20;;;13.40;99.90;;;;;;4973151;28;20128;-82
2023/09/27 06:26:42;;;;;;;35.38;31.67;;;13.00;99.90;;;;;;4990390;28;20085;-83
2023/09/27 06:29:09;;;;;;;35.97;32.25;;;13.00;99.90;;;;;;4972555;28;20046;-80
2023/09/27 06:31:35;;;;;;;34.63;31.13;;;13.10;99.90;;;;;;4988626;28;20126;-81
2023/09/27 06:34:01;;;;;;;36.63;32.67;;;13.10;99.90;;;;;;4990500;28;20078;-81
2023/09/27 06:36:29;;;;;;;38.00;33.58;;;13.80;99.90;;;;;;4956675;28;20839;-78
2023/09/27 06:38:56;;;;;;;36.85;33.03;;;13.20;99.90;;;;;;4990374;28;20046;-79
2023/09/27 06:41:21;;;;;;;36.50;32.45;;;13.20;99.90;;;;;;4989521;28;20457;-79
2023/09/27 06:43:47;;;;;;;35.53;31.75;;;13.20;99.90;;;;;;4972907;28;20082;-78
2023/09/27 06:46:15;;;;;;;36.92;32.95;;;13.30;99.90;;;;;;4989648;28;20132;-78
2023/09/27 06:48:41;;;;;;;37.35;32.28;;;13.30;99.90;;;;;;4990678;28;20082;-80
2023/09/27 06:51:07;;;;;;;35.65;31.80;;;13.30;99.90;;;;;;4989518;28;20050;-80
2023/09/27 06:53:33;;;;;;;35.88;31.70;;;13.40;99.90;;;;;;4990189;28;20050;-80
2023/09/27 06:55:59;;;;;;;35.35;31.55;;;14.00;99.90;;;;;;4988940;28;20058;-79
2023/09/27 06:58:25;;;;;;;35.05;31.25;;;13.50;99.90;;;;;;4989971;28;20038;-79
2023/09/27 07:00:52;;;;;;;37.58;31.50;;;13.60;99.90;;;;;;4991888;28;20073;-79
2023/09/27 07:03:19;;;;;;;35.65;31.77;;;13.70;99.90;;;;;;4992228;28;20055;-79
2023/09/27 07:05:46;;;;;;;35.83;31.98;;;13.90;99.90;;;;;;4990087;28;20610;-80
2023/09/27 07:08:13;;;;;;;34.17;30.58;;;14.00;99.90;;;;;;5003152;28;20057;-77
2023/09/27 07:10:39;;;;;;;33.30;29.90;;;14.20;99.90;;;;;;4992997;28;20084;-77
2023/09/27 07:13:06;;;;;;;34.10;30.55;;;14.30;99.90;;;;;;4989664;28;20451;-78
2023/09/27 07:15:32;;;;;;;33.55;30.10;;;14.40;99.90;;;;;;4988835;28;20100;-79
2023/09/27 07:39:32;;;;;;;36.30;32.50;;;16.10;99.90;;;;;;5123876;27;1225791;-83
2023/09/27 07:41:58;;;;;;;34.10;30.40;;;15.30;99.90;;;;;;5126577;27;20100;-84
2023/09/27 07:44:26;;;;;;;35.08;31.48;;;15.20;99.90;;;;;;5103168;28;20908;-83
2023/09/27 07:46:51;;;;;;;34.05;30.50;;;15.20;99.90;;;;;;5108344;27;20047;-84
2023/09/27 07:49:17;;;;;;;32.88;29.45;;;15.70;99.90;;;;;;5128705;27;20378;-83
2023/09/27 07:51:42;;;;;;;34.22;30.80;;;15.20;99.90;;;;;;5127327;27;20043;-84
2023/09/27 07:54:08;;;;;;;33.58;29.98;;;15.30;99.90;;;;;;5127982;27;20832;-83
2023/09/27 07:56:39;;;;;;;33.47;30.25;;;15.60;99.90;;;;;;5109287;27;20069;-83
2023/09/27 07:59:06;;;;;;;32.60;29.17;;;15.30;99.90;;;;;;5127469;27;20078;-83
2023/09/27 08:01:33;;;;;;;32.40;29.13;;;15.30;99.90;;;;;;5104214;28;20046;-84
2023/09/27 08:04:06;;;;;;;32.28;28.98;;;16.10;99.90;;;;;;5107257;28;20126;-83
2023/09/27 08:06:33;;;;;;;33.50;30.20;;;15.50;99.90;;;;;;5106651;28;20100;-84
2023/09/27 08:09:00;;;;;;;31.92;28.65;;;15.30;99.90;;;;;;5116509;27;20053;-86
2023/09/27 08:11:26;;;;;;;34.67;31.02;;;15.40;99.90;;;;;;5109721;27;20155;-81
2023/09/27 08:13:52;;;;;;;33.90;30.52;;;15.40;99.90;;;;;;5127443;27;20046;-85
2023/09/27 08:16:19;;;;;;;34.95;31.33;;;15.50;99.90;;;;;;5106027;27;20049;-82
2023/09/27 08:18:45;;;;;;;33.80;30.65;;;15.60;99.90;;;;;;5114608;27;20056;-84
2023/09/27 08:21:10;;;;;;;33.58;30.13;;;15.70;99.90;;;;;;5108086;28;20591;-82
2023/09/27 08:23:36;;;;;;;32.90;29.70;;;15.90;99.90;;;;;;5107040;28;20043;-83
2023/09/27 08:26:01;;;;;;;31.52;28.33;;;16.40;99.90;;;;;;5107536;28;20046;-83
2023/09/27 08:28:31;;;;;;;32.38;29.08;;;16.20;99.90;;;;;;5106619;27;20139;-82
2023/09/27 08:31:00;;;;;;;31.73;28.73;;;16.40;99.90;;;;;;5105702;28;20086;-82
2023/09/27 08:33:26;;;;;;;32.13;28.70;;;17.10;99.90;;;;;;5106318;28;20092;-82
2023/09/27 08:35:53;;;;;;;31.23;28.05;;;16.60;99.90;;;;;;5088379;28;20035;-82
2023/09/27 08:38:18;;;;;;;31.33;28.25;;;17.10;99.90;;;;;;5100000;28;20540;-81
2023/09/27 08:40:47;;;;;;;30.40;27.55;;;16.80;99.90;;;;;;5086814;28;20055;-82
2023/09/27 08:43:15;;;;;;;31.02;27.95;;;17.00;99.90;;;;;;5089141;28;20217;-82
2023/09/27 08:45:42;;;;;;;29.27;26.30;;;17.20;99.90;;;;;;5110729;28;20043;-83
2023/09/27 08:48:16;;;;;;;31.70;28.63;;;17.20;99.90;;;;;;5112045;28;20047;-82
2023/09/27 08:50:43;;;;;;;31.38;28.23;;;17.30;99.90;;;;;;5110984;28;20123;-82
2023/09/27 08:53:10;;;;;;;31.00;27.83;;;17.50;99.90;;;;;;5113135;28;20071;-82
2023/09/27 08:55:38;;;;;;;29.95;26.80;;;17.60;99.90;;;;;;5109566;28;20048;-82
2023/09/27 08:58:06;;;;;;;30.23;27.13;;;18.30;99.90;;;;;;5090334;28;20052;-82
2023/09/27 09:00:33;;;;;;;29.08;26.27;;;17.90;99.90;;;;;;5106249;28;20046;-83
2023/09/27 09:03:00;;;;;;;29.70;26.88;;;18.00;99.90;;;;;;5109282;28;20070;-84
2023/09/27 09:05:29;;;;;;;30.15;27.23;;;18.10;99.90;;;;;;5103693;28;20410;-84
2023/09/27 09:07:56;;;;;;;29.77;26.60;;;18.10;99.90;;;;;;5088224;28;20090;-85
2023/09/27 09:10:25;;;;;;;29.50;26.58;;;18.10;99.90;;;;;;5094464;28;20047;-83
2023/09/27 09:12:52;;;;;;;29.10;26.23;;;18.20;99.90;;;;;;5109954;28;20036;-89
2023/09/27 09:15:35;;;;;;;28.50;25.65;;;18.40;99.90;;;;;;5093565;28;20047;-82
2023/09/27 09:18:08;;;;;;;26.70;24.15;;;18.50;99.90;;;;;;5112104;28;20043;-84
2023/09/27 09:20:48;;;;;;;26.63;24.13;;;18.70;99.90;;;;;;5097544;28;20035;-82
2023/09/27 09:23:33;;;;;;;27.50;23.92;;;19.00;99.90;;;;;;5080966;28;20040;-81
2023/09/27 09:26:09;;;;;;;23.00;20.75;;;19.10;99.90;;;;;;5094031;28;20082;-82
2023/09/27 09:28:52;;;;;;;23.33;21.08;;;19.60;99.90;;;;;;5096701;28;20044;-83
2023/09/27 09:31:28;;;;;;;21.65;19.17;;;19.60;99.90;;;;;;5086063;28;20044;-83
2023/09/27 09:34:04;;;;;;;23.30;20.92;;;19.40;99.90;;;;;;5071572;28;20090;-84
2023/09/27 09:36:30;;;;;;;25.15;22.38;;;19.40;99.90;;;;;;5089311;28;20067;-83
2023/09/27 09:39:19;;;;;;;24.05;21.65;;;19.50;99.90;;;;;;5115042;27;20083;-83
2023/09/27 09:41:49;;;;;;;23.02;20.83;;;19.40;99.90;;;;;;5109784;28;20047;-83
2023/09/27 09:44:24;;;;;;;24.90;22.27;;;19.40;99.90;;;;;;5101774;28;20155;-82
2023/09/27 09:46:56;;;;;;;21.75;19.65;;;19.50;99.90;;;;;;5092326;28;20075;-82
2023/09/27 09:49:22;;;;;;;21.25;19.05;;;19.50;99.90;;;;;;5074922;28;20071;-81
2023/09/27 09:51:49;;;;;;;23.00;20.60;;;19.60;99.90;;;;;;5092558;28;20442;-83
2023/09/27 09:54:29;;;;;;;22.92;20.58;;;19.70;99.90;;;;;;5095346;27;20051;-83
2023/09/27 09:57:01;;;;;;;20.08;18.02;;;19.70;99.90;;;;;;5130061;27;20127;-83
2023/09/27 09:59:34;;;;;;;21.60;19.52;;;19.80;99.90;;;;;;5119449;27;20035;-83
2023/09/27 10:02:11;;;;;;;20.50;18.50;;;19.90;99.90;;;;;;5090910;28;20050;-82
2023/09/27 10:04:37;;;;;;;21.33;19.27;;;20.30;99.90;;;;;;5091729;28;20460;-83
2023/09/27 10:07:04;;;;;;;20.85;18.65;;;20.30;99.90;;;;;;5119966;27;20039;-86
2023/09/27 10:09:32;;;;;;;20.20;18.20;;;20.40;99.90;;;;;;5111951;27;20618;-83
2023/09/27 10:11:59;;;;;;;19.17;17.23;;;20.80;99.90;;;;;;5097110;27;20047;-83
2023/09/27 10:14:25;;;;;;;20.08;18.15;;;20.60;99.90;;;;;;5132671;27;20615;-83
2023/09/27 10:16:51;;;;;;;18.90;17.00;;;20.60;99.90;;;;;;5118669;27;20096;-82
2023/09/27 10:19:27;;;;;;;19.25;17.27;;;20.60;99.90;;;;;;5104611;28;20082;-85
2023/09/27 10:22:07;;;;;;;20.33;18.13;;;20.60;99.90;;;;;;5096933;28;20048;-82
2023/09/27 10:24:37;;;;;;;22.50;20.27;;;20.60;99.90;;;;;;5111376;27;20039;-82
2023/09/27 10:27:03;;;;;;;22.08;19.80;;;20.60;99.90;;;;;;5109630;27;20099;-83
2023/09/27 10:29:29;;;;;;;22.02;19.92;;;20.60;99.90;;;;;;5094584;27;20043;-83
2023/09/27 10:31:57;;;;;;;21.17;19.13;;;20.60;99.90;;;;;;5111122;27;20129;-85
2023/09/27 10:34:22;;;;;;;22.67;19.98;;;20.70;99.90;;;;;;5107132;27;20054;-83
2023/09/27 10:36:48;;;;;;;22.85;20.45;;;20.90;99.90;;;;;;5109029;27;20040;-83
2023/09/27 10:39:14;;;;;;;22.30;20.10;;;20.90;99.90;;;;;;5093308;28;20047;-83
2023/09/27 10:41:47;;;;;;;22.35;20.25;;;20.90;99.90;;;;;;5097980;27;20046;-82
2023/09/27 10:44:26;;;;;;;19.75;17.65;;;21.40;99.90;;;;;;5093156;27;20494;-84
2023/09/27 10:46:52;;;;;;;18.52;16.63;;;21.20;99.90;;;;;;5093220;28;20044;-84
2023/09/27 10:49:26;;;;;;;18.98;17.27;;;21.10;99.90;;;;;;5101357;28;20046;-83
2023/09/27 10:51:53;;;;;;;18.70;16.90;;;21.10;99.90;;;;;;5115005;27;20035;-83
2023/09/27 10:54:26;;;;;;;18.55;16.75;;;21.50;99.90;;;;;;5112448;27;20043;-83
2023/09/27 10:56:53;;;;;;;19.02;17.23;;;21.30;99.90;;;;;;5094128;28;20439;-82
2023/09/27 10:59:23;;;;;;;20.25;18.08;;;21.40;99.90;;;;;;5090042;28;20043;-83
2023/09/27 11:01:49;;;;;;;19.42;17.63;;;21.50;99.90;;;;;;5085599;27;20055;-83
2023/09/27 11:04:14;;;;;;;22.73;18.52;;;21.60;99.90;;;;;;5116318;27;20505;-83
2023/09/27 11:06:45;;;;;;;18.60;16.73;;;21.80;99.90;;;;;;5099236;28;20040;-82
2023/09/27 11:09:12;;;;;;;17.63;15.95;;;22.00;99.90;;;;;;5108637;28;20074;-82
2023/09/27 11:11:38;;;;;;;18.98;16.98;;;22.50;99.90;;;;;;5091729;27;20169;-82
2023/09/27 11:14:04;;;;;;;20.25;18.25;;;22.10;99.90;;;;;;5107521;27;20378;-83
2023/09/27 11:16:30;;;;;;;18.05;16.25;;;22.10;99.90;;;;;;5099348;27;20103;-83
2023/09/27 11:18:58;;;;;;;18.17;16.27;;;22.30;99.90;;;;;;5109951;28;20072;-82
2023/09/27 11:21:28;;;;;;;17.52;15.73;;;22.20;99.90;;;;;;5109737;27;20073;-83
2023/09/27 11:23:56;;;;;;;15.93;14.32;;;22.20;99.90;;;;;;5100079;28;20103;-86
2023/09/27 11:26:32;;;;;;;14.98;13.20;;;22.10;99.90;;;;;;5101118;28;20047;-82
2023/09/27 11:29:07;;;;;;;14.18;12.52;;;22.20;99.90;;;;;;5094843;28;20068;-83
2023/09/27 11:31:35;;;;;;;15.82;14.18;;;22.20;99.90;;;;;;5099882;28;20062;-83
2023/09/27 11:34:15;;;;;;;15.68;14.07;;;22.50;99.90;;;;;;5109588;28;20050;-83
2023/09/27 11:36:43;;;;;;;15.88;14.27;;;22.20;99.90;;;;;;5107105;28;20391;-84
2023/09/27 11:39:10;;;;;;;15.05;13.45;;;22.30;99.90;;;;;;5089125;28;20051;-84
2023/09/27 11:41:36;;;;;;;16.30;13.48;;;22.60;99.90;;;;;;5072007;28;20507;-82
2023/09/27 11:44:19;;;;;;;15.60;14.20;;;22.60;99.90;;;;;;5089155;28;20088;-81
2023/09/27 11:46:45;;;;;;;14.60;13.10;;;22.20;99.90;;;;;;5072369;28;20498;-82
2023/09/27 11:49:11;;;;;;;15.55;13.88;;;22.10;99.90;;;;;;5087903;28;20058;-82
2023/09/27 11:51:37;;;;;;;15.40;13.88;;;22.60;99.90;;;;;;5088846;28;20039;-84
2023/09/27 11:54:06;;;;;;;15.20;13.65;;;22.20;99.90;;;;;;5090247;28;20063;-83
2023/09/27 11:56:33;;;;;;;14.63;13.07;;;22.10;99.90;;;;;;5088465;28;20090;-83
2023/09/27 11:58:59;;;;;;;15.10;13.60;;;22.10;99.90;;;;;;5124105;28;20089;-83
2023/09/27 12:01:25;;;;;;;13.15;11.82;;;22.10;99.90;;;;;;5088940;28;20421;-82
2023/09/27 12:03:53;;;;;;;18.20;13.05;;;21.90;99.90;;;;;;5107014;28;20359;-83
2023/09/27 12:06:20;;;;;;;14.02;12.63;;;21.80;99.90;;;;;;5072001;28;20118;-83
2023/09/27 12:08:45;;;;;;;13.10;12.00;;;21.90;99.90;;;;;;5071918;28;20126;-83
2023/09/27 12:11:11;;;;;;;14.43;12.20;;;22.10;99.90;;;;;;5090099;28;20111;-83
2023/09/27 12:13:37;;;;;;;14.95;12.35;;;21.90;99.90;;;;;;5089445;28;20047;-83
2023/09/27 12:16:03;;;;;;;15.15;13.40;;;22.00;99.90;;;;;;5075217;28;20035;-83
2023/09/27 12:18:29;;;;;;;13.93;12.43;;;22.10;99.90;;;;;;5092928;28;20047;-83
2023/09/27 12:20:58;;;;;;;13.77;12.45;;;22.10;99.90;;;;;;5076809;27;20574;-82
2023/09/27 12:23:24;;;;;;;13.60;12.20;;;22.20;99.90;;;;;;5107366;27;20427;-85
2023/09/27 12:25:50;;;;;;;14.15;12.80;;;22.20;99.90;;;;;;5113187;27;20111;-86
2023/09/27 12:28:15;;;;;;;13.45;12.02;;;22.40;99.90;;;;;;5096152;27;20042;-83
2023/09/27 12:30:41;;;;;;;13.52;11.63;;;22.40;99.90;;;;;;5107884;27;20065;-83
2023/09/27 12:33:07;;;;;;;13.23;11.68;;;22.40;99.90;;;;;;5099562;27;20047;-83
2023/09/27 12:35:33;;;;;;;13.57;12.18;;;22.30;99.90;;;;;;5085959;27;20044;-83
2023/09/27 12:38:03;;;;;;;11.95;10.85;;;22.30;99.90;;;;;;5103430;28;20066;-83
2023/09/27 12:40:32;;;;;;;12.02;10.93;;;22.30;99.90;;;;;;5097176;27;20233;-83
2023/09/27 12:42:57;;;;;;;14.25;12.43;;;22.50;99.90;;;;;;5101849;28;20078;-83
2023/09/27 12:45:23;;;;;;;13.75;12.45;;;22.30;99.90;;;;;;5091732;27;20047;-83
2023/09/27 12:47:49;;;;;;;12.52;11.32;;;22.40;99.90;;;;;;5103769;28;20056;-83